Time;durP1;ratioP1;P1;durP2;ratioP2;P2;SDS_P1;SDS_P2;PMS_P1;PMS_P2;Temp;Humidity;BMP_temperature;BMP_pressure;BME280_temperature;BME280_humidity;BME280_pressure;Samples;Min_cycle;Max_cycle;Signal;HPM_P1;HPM_P2
2023/07/26 00:01:13;;;;;;;4.18;2.40;;;;;;;;;;5226397;28;20040;-70
2023/07/26 00:03:43;;;;;;;4.90;1.98;;;;;;;;;;5225672;28;20060;-70
2023/07/26 00:06:14;;;;;;;3.78;2.28;;;;;;;;;;5225715;28;20017;-70
2023/07/26 00:08:44;;;;;;;5.97;2.53;;;;;;;;;;5226039;28;20025;-70
2023/07/26 00:11:14;;;;;;;7.80;2.60;;;;;;;;;;5225947;28;20100;-70
2023/07/26 00:13:45;;;;;;;5.82;2.72;;;;;;;;;;5226142;28;20044;-70
2023/07/26 00:16:15;;;;;;;4.47;2.33;;;;;;;;;;5225097;28;20060;-70
2023/07/26 00:18:45;;;;;;;5.47;2.58;;;;;;;;;;5225898;28;20432;-70
2023/07/26 00:21:15;;;;;;;5.45;2.47;;;;;;;;;;5225896;28;20013;-70
2023/07/26 00:23:46;;;;;;;4.30;2.58;;;;;;;;;;5225542;28;20459;-70
2023/07/26 00:26:16;;;;;;;5.47;2.42;;;;;;;;;;5225393;28;20375;-70
2023/07/26 00:28:46;;;;;;;5.28;2.50;;;;;;;;;;5225743;28;20170;-70
2023/07/26 00:31:17;;;;;;;5.47;2.60;;;;;;;;;;5225798;28;20092;-70
2023/07/26 00:33:47;;;;;;;6.97;2.70;;;;;;;;;;5225744;28;20017;-70
2023/07/26 00:36:17;;;;;;;3.50;2.20;;;;;;;;;;5225435;28;20025;-70
2023/07/26 00:38:48;;;;;;;5.88;2.20;;;;;;;;;;5225361;28;20112;-70
2023/07/26 00:41:18;;;;;;;8.25;3.10;;;;;;;;;;5225178;28;20379;-70
2023/07/26 00:43:48;;;;;;;8.55;2.97;;;;;;;;;;5225319;28;20178;-70
2023/07/26 00:46:18;;;;;;;11.57;3.13;;;;;;;;;;5225282;28;20024;-70
2023/07/26 00:48:49;;;;;;;6.72;2.83;;;;;;;;;;5225532;28;20021;-70
2023/07/26 00:51:20;;;;;;;6.65;2.80;;;;;;;;;;5225630;28;20017;-70
2023/07/26 00:53:50;;;;;;;8.23;3.38;;;;;;;;;;5224867;28;20021;-70
2023/07/26 00:56:21;;;;;;;7.15;3.47;;;;;;;;;;5224916;28;20032;-70
2023/07/26 00:58:51;;;;;;;8.82;3.33;;;;;;;;;;5225045;28;20044;-69
2023/07/26 01:01:21;;;;;;;8.43;3.65;;;;;;;;;;5225303;28;20356;-70
2023/07/26 01:03:52;;;;;;;9.82;3.42;;;;;;;;;;5225322;28;20021;-70
2023/07/26 01:06:22;;;;;;;10.60;3.45;;;;;;;;;;5224871;28;20025;-70
2023/07/26 01:08:52;;;;;;;5.82;3.47;;;;;;;;;;5224880;28;20025;-70
2023/07/26 01:11:26;;;;;;;10.25;3.00;;;;;;;;;;5225003;28;20505;-70
2023/07/26 01:14:01;;;;;;;5.05;3.33;;;;;;;;;;5225213;28;20075;-70
2023/07/26 01:16:31;;;;;;;9.70;2.80;;;;;;;;;;5224427;28;20024;-70
2023/07/26 01:19:02;;;;;;;7.55;4.00;;;;;;;;;;5224890;28;20025;-70
2023/07/26 01:21:33;;;;;;;5.93;3.65;;;;;;;;;;5225203;28;20028;-70
2023/07/26 01:24:03;;;;;;;10.52;3.88;;;;;;;;;;5224654;28;20029;-70
2023/07/26 01:26:34;;;;;;;4.13;2.92;;;;;;;;;;5224752;28;20025;-70
2023/07/26 01:29:04;;;;;;;5.93;3.25;;;;;;;;;;5224298;28;20020;-70
2023/07/26 01:31:35;;;;;;;8.07;3.40;;;;;;;;;;5224913;28;20442;-70
2023/07/26 01:34:07;;;;;;;7.57;3.67;;;;;;;;;;5224283;28;20036;-70
2023/07/26 01:36:38;;;;;;;5.47;3.40;;;;;;;;;;5224166;28;20483;-70
2023/07/26 01:39:10;;;;;;;5.18;3.28;;;;;;;;;;5224868;28;20017;-70
2023/07/26 01:41:41;;;;;;;6.95;3.38;;;;;;;;;;5224264;28;20020;-70
2023/07/26 01:44:11;;;;;;;10.75;3.55;;;;;;;;;;5222011;28;20036;-70
2023/07/26 01:46:42;;;;;;;10.43;3.42;;;;;;;;;;5224079;28;20020;-70
2023/07/26 01:49:12;;;;;;;7.72;3.60;;;;;;;;;;5224904;28;20028;-71
2023/07/26 01:51:43;;;;;;;6.40;4.10;;;;;;;;;;5224446;28;20017;-70
2023/07/26 01:54:14;;;;;;;5.60;3.35;;;;;;;;;;5224076;28;20029;-70
2023/07/26 01:56:44;;;;;;;11.63;3.85;;;;;;;;;;5223810;28;20021;-70
2023/07/26 01:59:14;;;;;;;5.72;3.17;;;;;;;;;;5224199;28;20504;-71
2023/07/26 02:01:44;;;;;;;5.57;3.72;;;;;;;;;;5224344;28;20040;-71
2023/07/26 02:04:15;;;;;;;8.35;4.32;;;;;;;;;;5224207;28;20028;-70
2023/07/26 02:06:46;;;;;;;10.48;3.67;;;;;;;;;;5223705;28;20045;-70
2023/07/26 02:09:17;;;;;;;6.00;4.05;;;;;;;;;;5224077;28;20019;-70
2023/07/26 02:11:47;;;;;;;8.45;4.63;;;;;;;;;;5224434;28;20423;-70
2023/07/26 02:14:17;;;;;;;7.55;4.07;;;;;;;;;;5224212;28;20021;-71
2023/07/26 02:16:48;;;;;;;9.95;4.90;;;;;;;;;;5223930;28;20021;-71
2023/07/26 02:19:18;;;;;;;9.98;4.95;;;;;;;;;;5223813;28;20285;-71
2023/07/26 02:21:48;;;;;;;15.20;4.70;;;;;;;;;;5224522;28;20393;-71
2023/07/26 02:24:19;;;;;;;8.55;4.28;;;;;;;;;;5224320;28;20028;-71
2023/07/26 02:26:49;;;;;;;7.13;4.55;;;;;;;;;;5223749;28;20020;-71
2023/07/26 02:29:20;;;;;;;9.30;5.03;;;;;;;;;;5224185;28;20017;-71
2023/07/26 02:31:50;;;;;;;8.32;5.65;;;;;;;;;;5223860;28;20112;-71
2023/07/26 02:34:20;;;;;;;10.90;5.03;;;;;;;;;;5223921;28;20025;-71
2023/07/26 02:36:50;;;;;;;8.85;5.20;;;;;;;;;;5223560;28;20097;-71
2023/07/26 02:39:21;;;;;;;11.88;5.55;;;;;;;;;;5223781;28;20029;-71
2023/07/26 02:41:51;;;;;;;10.50;5.22;;;;;;;;;;5223482;28;20033;-71
2023/07/26 02:44:21;;;;;;;12.40;6.18;;;;;;;;;;5223720;28;20021;-71
2023/07/26 02:46:52;;;;;;;12.07;5.40;;;;;;;;;;5225825;28;20044;-71
2023/07/26 02:49:22;;;;;;;13.07;5.93;;;;;;;;;;5227917;28;20025;-70
2023/07/26 02:51:52;;;;;;;13.77;6.78;;;;;;;;;;5227824;28;20039;-71
2023/07/26 02:54:23;;;;;;;12.88;6.00;;;;;;;;;;5227629;28;20021;-71
2023/07/26 02:56:53;;;;;;;14.30;6.15;;;;;;;;;;5227372;28;20048;-71
2023/07/26 02:59:23;;;;;;;9.10;6.03;;;;;;;;;;5227640;28;20021;-71
2023/07/26 03:01:54;;;;;;;14.50;5.82;;;;;;;;;;5227456;28;20474;-72
2023/07/26 03:04:24;;;;;;;11.70;5.88;;;;;;;;;;5227567;28;20470;-71
2023/07/26 03:06:54;;;;;;;12.57;6.40;;;;;;;;;;5226587;28;20044;-71
2023/07/26 03:09:25;;;;;;;10.75;5.63;;;;;;;;;;5227217;28;20036;-71
2023/07/26 03:11:55;;;;;;;11.77;6.47;;;;;;;;;;5227688;28;20170;-70
2023/07/26 03:14:25;;;;;;;10.88;6.30;;;;;;;;;;5227345;28;20029;-71
2023/07/26 03:16:56;;;;;;;14.52;6.53;;;;;;;;;;5227051;28;20024;-71
2023/07/26 03:19:26;;;;;;;10.82;6.05;;;;;;;;;;5225618;28;20067;-71
2023/07/26 03:21:56;;;;;;;12.52;5.88;;;;;;;;;;5227795;28;20102;-71
2023/07/26 03:24:27;;;;;;;10.60;5.95;;;;;;;;;;5227083;28;20477;-71
2023/07/26 03:26:57;;;;;;;14.35;6.40;;;;;;;;;;5226947;28;20923;-71
2023/07/26 03:29:27;;;;;;;15.45;6.07;;;;;;;;;;5227374;28;20023;-71
2023/07/26 03:31:57;;;;;;;14.25;5.90;;;;;;;;;;5227108;28;20024;-71
2023/07/26 03:34:28;;;;;;;14.15;6.88;;;;;;;;;;5226964;28;20017;-71
2023/07/26 03:36:58;;;;;;;12.30;6.32;;;;;;;;;;5226529;28;20054;-71
2023/07/26 03:39:28;;;;;;;10.65;6.80;;;;;;;;;;5226968;28;20354;-71
2023/07/26 03:42:00;;;;;;;13.75;6.72;;;;;;;;;;5226888;28;20104;-71
2023/07/26 03:44:30;;;;;;;14.30;6.85;;;;;;;;;;5226683;28;20037;-71
2023/07/26 03:47:00;;;;;;;13.80;6.78;;;;;;;;;;5226527;28;20013;-71
2023/07/26 03:49:31;;;;;;;12.07;6.88;;;;;;;;;;5226664;28;20013;-71
2023/07/26 03:52:02;;;;;;;16.42;7.03;;;;;;;;;;5226594;28;20368;-71
2023/07/26 03:54:32;;;;;;;12.20;5.55;;;;;;;;;;5226749;28;20021;-71
2023/07/26 03:57:02;;;;;;;12.38;6.13;;;;;;;;;;5225475;28;20498;-71
2023/07/26 03:59:33;;;;;;;14.55;6.80;;;;;;;;;;5226241;28;20035;-70
2023/07/26 04:02:03;;;;;;;14.98;7.32;;;;;;;;;;5226242;28;20021;-70
2023/07/26 04:04:34;;;;;;;12.25;6.43;;;;;;;;;;5226218;28;20106;-70
2023/07/26 04:07:04;;;;;;;16.92;6.68;;;;;;;;;;5226057;28;20071;-70
2023/07/26 04:09:34;;;;;;;18.75;7.07;;;;;;;;;;5225653;28;20075;-70
2023/07/26 04:12:05;;;;;;;20.48;8.48;;;;;;;;;;5226347;28;20055;-70
2023/07/26 04:14:35;;;;;;;11.88;6.80;;;;;;;;;;5226062;28;20490;-70
2023/07/26 04:17:05;;;;;;;14.50;6.93;;;;;;;;;;5225706;28;20013;-70
2023/07/26 04:19:36;;;;;;;12.73;7.85;;;;;;;;;;5226022;28;20086;-70
2023/07/26 04:22:06;;;;;;;14.40;7.47;;;;;;;;;;5226387;28;20029;-70
2023/07/26 04:24:40;;;;;;;14.93;7.53;;;;;;;;;;5225864;28;20032;-70
2023/07/26 04:27:11;;;;;;;15.37;7.13;;;;;;;;;;5225705;28;20024;-70
2023/07/26 04:29:42;;;;;;;11.48;7.00;;;;;;;;;;5225757;28;20738;-70
2023/07/26 04:32:12;;;;;;;11.98;6.95;;;;;;;;;;5225689;28;20021;-70
2023/07/26 04:34:43;;;;;;;11.70;6.28;;;;;;;;;;5225614;28;20031;-70
2023/07/26 04:37:13;;;;;;;14.63;6.78;;;;;;;;;;5225255;28;20091;-70
2023/07/26 04:39:45;;;;;;;14.85;7.90;;;;;;;;;;5225747;28;20017;-71
2023/07/26 04:42:15;;;;;;;11.40;7.00;;;;;;;;;;5224373;28;20029;-70
2023/07/26 04:44:46;;;;;;;13.52;6.05;;;;;;;;;;5225270;28;20025;-70
2023/07/26 04:47:18;;;;;;;12.52;6.70;;;;;;;;;;5225086;28;20028;-70
2023/07/26 04:49:49;;;;;;;12.05;6.68;;;;;;;;;;5225634;28;20009;-70
2023/07/26 04:52:19;;;;;;;13.60;6.57;;;;;;;;;;5225795;28;20067;-70
2023/07/26 04:54:49;;;;;;;13.82;6.80;;;;;;;;;;5226016;28;20355;-70
2023/07/26 04:57:20;;;;;;;12.15;6.20;;;;;;;;;;5224710;28;20032;-71
2023/07/26 04:59:50;;;;;;;18.02;7.18;;;;;;;;;;5225158;28;20021;-70
2023/07/26 05:02:20;;;;;;;13.75;7.38;;;;;;;;;;5225297;28;20029;-71
2023/07/26 05:04:50;;;;;;;12.57;7.50;;;;;;;;;;5224944;28;20056;-71
2023/07/26 05:07:21;;;;;;;17.00;8.85;;;;;;;;;;5224659;28;20088;-71
2023/07/26 05:09:51;;;;;;;16.58;8.07;;;;;;;;;;5223552;28;20092;-71
2023/07/26 05:12:21;;;;;;;18.70;8.57;;;;;;;;;;5225260;28;20021;-71
2023/07/26 05:14:51;;;;;;;21.85;8.02;;;;;;;;;;5225145;28;20077;-72
2023/07/26 05:17:22;;;;;;;17.77;9.15;;;;;;;;;;5224754;28;20035;-71
2023/07/26 05:19:52;;;;;;;18.38;7.60;;;;;;;;;;5225339;28;20446;-71
2023/07/26 05:22:22;;;;;;;14.68;8.00;;;;;;;;;;5224685;28;20020;-72
2023/07/26 05:24:53;;;;;;;19.45;8.05;;;;;;;;;;5224886;28;20029;-72
2023/07/26 05:27:23;;;;;;;18.85;8.52;;;;;;;;;;5224575;28;20029;-71
2023/07/26 05:29:53;;;;;;;17.95;8.93;;;;;;;;;;5224817;28;20028;-71
2023/07/26 05:32:24;;;;;;;20.38;8.48;;;;;;;;;;5224754;28;20479;-71
2023/07/26 05:34:55;;;;;;;20.88;8.48;;;;;;;;;;5225074;28;20036;-71
2023/07/26 05:37:25;;;;;;;22.63;9.35;;;;;;;;;;5224122;28;20047;-71
2023/07/26 05:39:55;;;;;;;20.95;9.05;;;;;;;;;;5224537;28;20060;-71
2023/07/26 05:42:26;;;;;;;13.43;8.00;;;;;;;;;;5224470;28;20029;-71
2023/07/26 05:44:57;;;;;;;19.13;9.63;;;;;;;;;;5224646;28;20021;-71
2023/07/26 05:47:27;;;;;;;17.30;9.10;;;;;;;;;;5224136;28;20067;-71
2023/07/26 05:49:58;;;;;;;14.48;7.82;;;;;;;;;;5224492;28;20021;-71
2023/07/26 05:52:28;;;;;;;16.70;9.00;;;;;;;;;;5224394;28;20051;-71
2023/07/26 05:54:58;;;;;;;17.75;9.57;;;;;;;;;;5224310;28;20025;-71
2023/07/26 05:57:29;;;;;;;21.40;9.73;;;;;;;;;;5224184;28;20017;-70
2023/07/26 05:59:59;;;;;;;19.02;10.23;;;;;;;;;;5223803;28;20009;-71
2023/07/26 06:02:30;;;;;;;23.10;10.50;;;;;;;;;;5224170;28;20037;-71
2023/07/26 06:05:00;;;;;;;23.95;8.73;;;;;;;;;;5224039;28;20017;-71
2023/07/26 06:07:31;;;;;;;19.50;9.35;;;;;;;;;;5223725;28;20017;-71
2023/07/26 06:10:01;;;;;;;19.42;9.07;;;;;;;;;;5223981;28;20414;-72
2023/07/26 06:12:32;;;;;;;25.92;9.85;;;;;;;;;;5223940;28;20021;-71
2023/07/26 06:15:02;;;;;;;14.90;8.07;;;;;;;;;;5224410;28;20102;-71
2023/07/26 06:17:33;;;;;;;15.68;7.18;;;;;;;;;;5223539;28;20506;-71
2023/07/26 06:20:04;;;;;;;15.30;6.93;;;;;;;;;;5224094;28;20110;-72
2023/07/26 06:22:35;;;;;;;13.80;6.82;;;;;;;;;;5228052;28;20021;-71
2023/07/26 06:25:05;;;;;;;14.43;6.85;;;;;;;;;;5227040;28;20040;-72
2023/07/26 06:27:36;;;;;;;12.23;6.00;;;;;;;;;;5227822;28;20027;-71
2023/07/26 06:30:06;;;;;;;15.57;6.35;;;;;;;;;;5228454;28;20466;-71
2023/07/26 06:32:37;;;;;;;13.15;6.28;;;;;;;;;;5228385;28;20025;-71
2023/07/26 06:35:08;;;;;;;16.25;6.65;;;;;;;;;;5228507;28;20052;-71
2023/07/26 06:37:38;;;;;;;13.13;6.38;;;;;;;;;;5227585;28;20033;-71
2023/07/26 06:40:09;;;;;;;10.13;4.53;;;;;;;;;;5228429;28;20021;-71
2023/07/26 06:42:39;;;;;;;12.15;5.32;;;;;;;;;;5228027;28;20536;-71
2023/07/26 06:45:10;;;;;;;9.75;5.00;;;;;;;;;;5227939;28;20489;-71
2023/07/26 06:47:40;;;;;;;11.23;5.05;;;;;;;;;;5227328;28;20471;-72
2023/07/26 06:50:10;;;;;;;13.15;5.10;;;;;;;;;;5227660;28;20497;-71
2023/07/26 06:52:41;;;;;;;19.10;4.93;;;;;;;;;;5227867;28;20017;-71
2023/07/26 06:55:11;;;;;;;13.27;5.25;;;;;;;;;;5227634;28;20025;-72
2023/07/26 06:57:41;;;;;;;12.25;5.97;;;;;;;;;;5227585;28;20359;-71
2023/07/26 07:00:14;;;;;;;11.93;5.03;;;;;;;;;;5227400;28;20102;-71
2023/07/26 07:02:45;;;;;;;10.70;4.70;;;;;;;;;;5227695;28;20033;-71
2023/07/26 07:05:15;;;;;;;11.15;4.65;;;;;;;;;;5227416;28;20371;-71
2023/07/26 07:07:45;;;;;;;8.70;4.65;;;;;;;;;;5227183;28;20021;-71
2023/07/26 07:10:15;;;;;;;14.55;5.05;;;;;;;;;;5227353;28;20025;-71
2023/07/26 07:12:46;;;;;;;18.92;4.93;;;;;;;;;;5227164;28;20017;-71
2023/07/26 07:15:16;;;;;;;14.18;4.72;;;;;;;;;;5227416;28;20071;-71
2023/07/26 07:17:46;;;;;;;10.57;5.25;;;;;;;;;;5226903;28;20104;-71
2023/07/26 07:20:17;;;;;;;10.75;4.72;;;;;;;;;;5227374;28;20025;-71
2023/07/26 07:22:51;;;;;;;13.90;4.88;;;;;;;;;;5227306;28;20024;-71
2023/07/26 07:25:21;;;;;;;14.70;5.18;;;;;;;;;;5226694;28;20024;-71
2023/07/26 07:27:51;;;;;;;12.00;4.45;;;;;;;;;;5226923;28;20029;-71
2023/07/26 07:30:22;;;;;;;13.35;4.05;;;;;;;;;;5227300;28;20016;-71
2023/07/26 07:32:52;;;;;;;8.50;5.07;;;;;;;;;;5226219;28;20013;-71
2023/07/26 07:35:22;;;;;;;12.10;4.85;;;;;;;;;;5227034;28;20028;-71
2023/07/26 07:37:53;;;;;;;14.02;4.70;;;;;;;;;;5226321;28;20360;-71
2023/07/26 07:40:23;;;;;;;8.05;3.95;;;;;;;;;;5226936;28;20402;-71
2023/07/26 07:42:53;;;;;;;10.00;5.07;;;;;;;;;;5227047;28;20025;-71
2023/07/26 07:45:24;;;;;;;13.30;5.25;;;;;;;;;;5226583;28;20517;-71
2023/07/26 07:47:54;;;;;;;9.35;4.80;;;;;;;;;;5225363;28;20073;-71
2023/07/26 07:50:24;;;;;;;10.18;5.10;;;;;;;;;;5226212;28;20057;-71
2023/07/26 07:52:54;;;;;;;13.55;4.82;;;;;;;;;;5226834;28;20394;-71
2023/07/26 07:55:25;;;;;;;8.43;4.13;;;;;;;;;;5226319;28;20461;-71
2023/07/26 07:57:55;;;;;;;14.35;4.05;;;;;;;;;;5226343;28;20085;-71
2023/07/26 08:00:25;;;;;;;9.88;3.67;;;;;;;;;;5226264;28;20021;-71
2023/07/26 08:02:56;;;;;;;11.57;4.95;;;;;;;;;;5226069;28;20044;-72
2023/07/26 08:05:26;;;;;;;11.27;4.13;;;;;;;;;;5226314;28;20025;-71
2023/07/26 08:07:56;;;;;;;10.55;4.38;;;;;;;;;;5225909;28;20043;-71
2023/07/26 08:10:27;;;;;;;8.57;3.85;;;;;;;;;;5226739;28;20013;-72
2023/07/26 08:12:57;;;;;;;10.20;3.47;;;;;;;;;;5226236;28;20037;-72
2023/07/26 08:15:32;;;;;;;7.70;3.67;;;;;;;;;;5225729;28;20067;-72
2023/07/26 08:18:02;;;;;;;7.28;3.35;;;;;;;;;;5225888;28;20009;-72
2023/07/26 08:20:34;;;;;;;5.47;3.50;;;;;;;;;;5226198;28;20024;-72
2023/07/26 08:23:05;;;;;;;7.70;3.40;;;;;;;;;;5226288;28;20501;-72
2023/07/26 08:25:35;;;;;;;7.50;3.40;;;;;;;;;;5225645;28;20021;-72
2023/07/26 08:28:05;;;;;;;6.38;3.17;;;;;;;;;;5225873;28;20017;-72
2023/07/26 08:30:36;;;;;;;8.05;2.92;;;;;;;;;;5226119;28;20024;-72
2023/07/26 08:33:07;;;;;;;8.80;3.72;;;;;;;;;;5226128;28;20107;-72
2023/07/26 08:35:37;;;;;;;5.72;3.20;;;;;;;;;;5225588;28;20036;-72
2023/07/26 08:38:08;;;;;;;6.82;3.53;;;;;;;;;;5225319;28;20025;-72
2023/07/26 08:40:57;;;;;;;8.73;3.85;;;;;;;;;;5224606;28;20189;-72
2023/07/26 08:43:30;;;;;;;7.57;3.63;;;;;;;;;;5225533;28;20028;-72
2023/07/26 08:46:01;;;;;;;6.90;3.10;;;;;;;;;;5225290;28;20304;-72
2023/07/26 08:48:32;;;;;;;9.52;4.38;;;;;;;;;;5225210;28;20054;-72
2023/07/26 08:51:05;;;;;;;8.30;3.15;;;;;;;;;;5225612;28;20031;-72
2023/07/26 08:53:35;;;;;;;8.40;3.20;;;;;;;;;;5225506;28;20100;-72
2023/07/26 08:56:06;;;;;;;6.80;3.30;;;;;;;;;;5225055;28;20115;-72
2023/07/26 08:58:36;;;;;;;4.35;3.00;;;;;;;;;;5225374;28;20056;-72
2023/07/26 09:01:07;;;;;;;12.68;4.28;;;;;;;;;;5223995;28;20474;-72
2023/07/26 09:03:37;;;;;;;7.18;3.45;;;;;;;;;;5225326;28;20036;-72
2023/07/26 09:06:08;;;;;;;10.75;4.28;;;;;;;;;;5224904;28;20025;-72
2023/07/26 09:08:38;;;;;;;5.90;3.45;;;;;;;;;;5225003;28;20021;-72
2023/07/26 09:11:23;;;;;;;7.03;4.57;;;;;;;;;;5225230;28;20028;-73
2023/07/26 09:13:53;;;;;;;5.73;4.00;;;;;;;;;;5225255;28;20502;-72
2023/07/26 09:16:42;;;;;;;7.35;4.40;;;;;;;;;;5223353;28;20270;-72
2023/07/26 09:19:13;;;;;;;7.95;4.15;;;;;;;;;;5224890;28;20096;-73
2023/07/26 09:21:43;;;;;;;7.57;4.40;;;;;;;;;;5225620;28;20100;-73
2023/07/26 09:24:13;;;;;;;10.43;3.72;;;;;;;;;;5224874;28;20032;-72
2023/07/26 09:26:43;;;;;;;7.30;3.75;;;;;;;;;;5224633;28;20075;-73
2023/07/26 09:29:16;;;;;;;10.18;3.75;;;;;;;;;;5224706;28;20036;-72
2023/07/26 09:31:46;;;;;;;7.82;3.53;;;;;;;;;;5224982;28;20544;-72
2023/07/26 09:34:18;;;;;;;7.63;3.28;;;;;;;;;;5224793;28;20025;-72
2023/07/26 09:36:50;;;;;;;6.70;3.78;;;;;;;;;;5224142;28;20482;-72
2023/07/26 09:39:21;;;;;;;9.23;3.72;;;;;;;;;;5224736;28;20394;-72
2023/07/26 09:42:02;;;;;;;10.77;4.38;;;;;;;;;;5225074;28;20471;-72
2023/07/26 09:44:32;;;;;;;5.72;3.30;;;;;;;;;;5224596;28;20021;-73
2023/07/26 09:47:03;;;;;;;5.47;3.53;;;;;;;;;;5223861;28;20027;-72
2023/07/26 09:49:33;;;;;;;6.38;3.42;;;;;;;;;;5224639;28;20021;-72
2023/07/26 09:52:05;;;;;;;5.75;2.75;;;;;;;;;;5224624;28;20040;-72
2023/07/26 09:54:36;;;;;;;5.25;3.47;;;;;;;;;;5225053;28;20477;-72
2023/07/26 09:57:06;;;;;;;5.90;2.30;;;;;;;;;;5223321;28;20017;-73
2023/07/26 09:59:36;;;;;;;6.28;3.03;;;;;;;;;;5224069;28;20043;-72
2023/07/26 10:02:09;;;;;;;5.60;3.38;;;;;;;;;;5224482;28;20017;-73
2023/07/26 10:04:58;;;;;;;5.40;3.08;;;;;;;;;;5224223;28;20021;-72
2023/07/26 10:07:31;;;;;;;10.95;3.63;;;;;;;;;;5223893;28;20023;-73
2023/07/26 10:10:01;;;;;;;7.03;3.17;;;;;;;;;;5224101;28;20028;-73
2023/07/26 10:12:32;;;;;;;6.47;2.90;;;;;;;;;;5224384;28;20013;-73
2023/07/26 10:15:05;;;;;;;5.85;3.15;;;;;;;;;;5224134;28;20048;-73
2023/07/26 10:17:37;;;;;;;5.18;3.00;;;;;;;;;;5223504;28;20078;-73
2023/07/26 10:20:09;;;;;;;7.25;3.38;;;;;;;;;;5224314;28;20050;-73
2023/07/26 10:22:41;;;;;;;5.93;3.13;;;;;;;;;;5223984;28;20024;-73
2023/07/26 10:25:11;;;;;;;5.03;3.08;;;;;;;;;;5224052;28;20028;-73
2023/07/26 10:27:43;;;;;;;6.28;3.33;;;;;;;;;;5223589;28;20470;-73
2023/07/26 10:30:13;;;;;;;6.45;3.25;;;;;;;;;;5224010;28;20151;-73
2023/07/26 10:32:47;;;;;;;6.07;3.08;;;;;;;;;;5223717;28;20108;-73
2023/07/26 10:35:36;;;;;;;8.40;3.15;;;;;;;;;;5224069;28;20025;-73
2023/07/26 10:38:06;;;;;;;5.78;3.15;;;;;;;;;;5223742;28;20252;-72
2023/07/26 10:40:38;;;;;;;11.38;4.10;;;;;;;;;;5223812;28;20529;-72
2023/07/26 10:43:20;;;;;;;9.43;3.90;;;;;;;;;;5223644;28;20429;-72
2023/07/26 10:45:54;;;;;;;6.13;3.65;;;;;;;;;;5223440;28;20394;-72
2023/07/26 10:48:36;;;;;;;5.55;3.30;;;;;;;;;;5223956;28;20025;-72
2023/07/26 10:51:25;;;;;;;3.97;2.67;;;;;;;;;;5224035;28;20071;-73
2023/07/26 10:53:58;;;;;;;6.60;2.58;;;;;;;;;;5223722;28;20025;-73
2023/07/26 10:56:31;;;;;;;4.93;2.60;;;;;;;;;;5223373;28;20024;-72
2023/07/26 10:59:02;;;;;;;4.63;3.08;;;;;;;;;;5222685;28;20017;-72
2023/07/26 11:01:37;;;;;;;5.03;2.92;;;;;;;;;;5223782;28;20091;-73
2023/07/26 11:04:09;;;;;;;4.63;2.70;;;;;;;;;;5223425;28;20095;-73
2023/07/26 11:06:58;;;;;;;6.50;2.65;;;;;;;;;;5223918;28;20028;-73
2023/07/26 11:09:31;;;;;;;7.53;3.10;;;;;;;;;;5227424;28;20025;-73
2023/07/26 11:12:02;;;;;;;5.60;2.72;;;;;;;;;;5227647;28;20028;-72
2023/07/26 11:14:33;;;;;;;6.70;3.33;;;;;;;;;;5227050;28;20102;-72
2023/07/26 11:17:21;;;;;;;6.88;3.38;;;;;;;;;;5227386;28;20061;-72
2023/07/26 11:19:51;;;;;;;9.80;3.65;;;;;;;;;;5227219;28;20028;-72
2023/07/26 11:22:21;;;;;;;9.07;3.67;;;;;;;;;;5227893;28;20057;-72
2023/07/26 11:24:52;;;;;;;5.85;2.70;;;;;;;;;;5226687;28;20486;-72
2023/07/26 11:27:22;;;;;;;6.13;3.10;;;;;;;;;;5226659;28;20155;-72
2023/07/26 11:29:52;;;;;;;4.90;2.95;;;;;;;;;;5226088;28;20021;-73
2023/07/26 11:32:24;;;;;;;8.52;3.15;;;;;;;;;;5227098;28;20013;-73
2023/07/26 11:34:55;;;;;;;6.68;3.22;;;;;;;;;;5227251;28;20364;-73
2023/07/26 11:37:25;;;;;;;6.57;2.92;;;;;;;;;;5226310;28;20025;-72
2023/07/26 11:40:09;;;;;;;7.45;2.80;;;;;;;;;;5227062;28;20095;-73
2023/07/26 11:42:39;;;;;;;6.70;2.85;;;;;;;;;;5226902;28;20078;-73
2023/07/26 11:45:10;;;;;;;7.53;3.10;;;;;;;;;;5226847;28;20021;-72
2023/07/26 11:47:40;;;;;;;7.00;2.78;;;;;;;;;;5227037;28;20370;-73
2023/07/26 11:50:11;;;;;;;4.95;2.92;;;;;;;;;;5226589;28;20471;-73
2023/07/26 11:52:42;;;;;;;5.05;2.97;;;;;;;;;;5227031;28;20024;-73
2023/07/26 11:55:12;;;;;;;4.97;2.40;;;;;;;;;;5226506;28;20295;-73
2023/07/26 11:57:42;;;;;;;7.72;2.97;;;;;;;;;;5226921;28;20056;-73
2023/07/26 12:00:13;;;;;;;6.72;2.70;;;;;;;;;;5226987;28;20020;-73
2023/07/26 12:02:43;;;;;;;5.05;3.00;;;;;;;;;;5226386;28;20061;-72
2023/07/26 12:05:32;;;;;;;7.20;2.88;;;;;;;;;;5226401;28;20113;-73
2023/07/26 12:08:05;;;;;;;6.82;3.70;;;;;;;;;;5225978;28;20021;-72
2023/07/26 12:10:37;;;;;;;7.22;3.38;;;;;;;;;;5226100;28;20029;-72
2023/07/26 12:13:18;;;;;;;5.15;2.92;;;;;;;;;;5226166;28;20374;-73
2023/07/26 12:15:50;;;;;;;4.55;3.13;;;;;;;;;;5226028;28;20029;-73
2023/07/26 12:18:21;;;;;;;6.20;2.70;;;;;;;;;;5226001;28;20075;-72
2023/07/26 12:21:07;;;;;;;9.35;3.28;;;;;;;;;;5226195;28;20024;-72
2023/07/26 12:23:49;;;;;;;6.40;2.78;;;;;;;;;;5226265;28;20021;-72
2023/07/26 12:26:21;;;;;;;14.27;3.00;;;;;;;;;;5225600;28;20025;-72
2023/07/26 12:28:51;;;;;;;7.10;3.45;;;;;;;;;;5226009;28;20020;-72
2023/07/26 12:31:24;;;;;;;8.48;3.40;;;;;;;;;;5226122;28;20096;-72
2023/07/26 12:33:56;;;;;;;5.63;3.30;;;;;;;;;;5225722;28;20028;-72
2023/07/26 12:36:28;;;;;;;6.50;3.00;;;;;;;;;;5225665;28;20028;-73
2023/07/26 12:38:58;;;;;;;5.70;3.22;;;;;;;;;;5225442;28;20390;-72
2023/07/26 12:41:28;;;;;;;5.53;2.80;;;;;;;;;;5225996;28;20020;-72
2023/07/26 12:43:59;;;;;;;6.93;3.08;;;;;;;;;;5224214;28;20025;-72
2023/07/26 12:46:29;;;;;;;4.70;3.08;;;;;;;;;;5225448;28;20023;-72
2023/07/26 12:49:00;;;;;;;4.82;2.88;;;;;;;;;;5225455;28;20075;-72
2023/07/26 12:51:31;;;;;;;6.93;3.35;;;;;;;;;;5225642;28;20386;-72
2023/07/26 12:54:02;;;;;;;6.20;2.95;;;;;;;;;;5225991;28;20025;-72
2023/07/26 12:56:32;;;;;;;8.40;3.20;;;;;;;;;;5225182;28;20105;-72
2023/07/26 12:59:03;;;;;;;6.40;2.85;;;;;;;;;;5225434;28;20465;-72
2023/07/26 13:01:33;;;;;;;7.05;3.22;;;;;;;;;;5225420;28;20013;-72
2023/07/26 13:04:04;;;;;;;4.82;2.83;;;;;;;;;;5225202;28;20036;-72
2023/07/26 13:06:34;;;;;;;4.65;2.80;;;;;;;;;;5225154;28;20082;-72
2023/07/26 13:09:05;;;;;;;5.97;3.20;;;;;;;;;;5224828;28;20028;-72
2023/07/26 13:11:35;;;;;;;6.43;3.55;;;;;;;;;;5225124;28;20032;-72
2023/07/26 13:14:06;;;;;;;5.63;2.85;;;;;;;;;;5225221;28;20088;-73
2023/07/26 13:16:36;;;;;;;6.25;3.10;;;;;;;;;;5224490;28;20566;-72
2023/07/26 13:19:07;;;;;;;7.43;3.38;;;;;;;;;;5224793;28;20074;-72
2023/07/26 13:21:37;;;;;;;9.40;3.42;;;;;;;;;;5224714;28;20014;-72
2023/07/26 13:24:07;;;;;;;7.28;3.03;;;;;;;;;;5224951;28;20023;-72
2023/07/26 13:26:37;;;;;;;5.82;2.90;;;;;;;;;;5224626;28;20365;-72
2023/07/26 13:29:08;;;;;;;8.43;3.13;;;;;;;;;;5225381;28;20075;-72
2023/07/26 13:31:38;;;;;;;7.43;3.65;;;;;;;;;;5224661;28;20123;-72
2023/07/26 13:34:08;;;;;;;5.93;2.88;;;;;;;;;;5224463;28;20021;-73
2023/07/26 13:36:39;;;;;;;4.40;2.72;;;;;;;;;;5224519;28;20475;-72
2023/07/26 13:39:09;;;;;;;7.28;3.05;;;;;;;;;;5224539;28;20432;-72
2023/07/26 13:41:39;;;;;;;5.13;3.00;;;;;;;;;;5224956;28;20031;-73
2023/07/26 13:44:09;;;;;;;7.68;2.90;;;;;;;;;;5224441;28;20509;-72
2023/07/26 13:46:40;;;;;;;6.47;3.25;;;;;;;;;;5224041;28;20035;-72
2023/07/26 13:49:10;;;;;;;6.25;3.47;;;;;;;;;;5224608;28;20028;-73
2023/07/26 13:51:41;;;;;;;7.78;3.38;;;;;;;;;;5224429;28;20013;-73
2023/07/26 13:54:11;;;;;;;5.43;2.97;;;;;;;;;;5224515;28;20033;-73
2023/07/26 13:56:42;;;;;;;4.90;2.92;;;;;;;;;;5223961;28;20103;-73
2023/07/26 13:59:12;;;;;;;6.72;3.22;;;;;;;;;;5223910;28;20083;-73
2023/07/26 14:01:42;;;;;;;7.38;2.72;;;;;;;;;;5224150;28;20013;-73
2023/07/26 14:04:12;;;;;;;4.50;2.90;;;;;;;;;;5224212;28;20013;-72
2023/07/26 14:06:43;;;;;;;5.65;3.50;;;;;;;;;;5223785;28;20012;-73
2023/07/26 14:09:13;;;;;;;5.10;3.10;;;;;;;;;;5224101;28;20020;-72
2023/07/26 14:11:43;;;;;;;7.88;3.45;;;;;;;;;;5224131;28;20037;-73
2023/07/26 14:14:14;;;;;;;5.80;2.92;;;;;;;;;;5224060;28;20536;-73
2023/07/26 14:16:44;;;;;;;8.35;3.78;;;;;;;;;;5223763;28;20032;-73
2023/07/26 14:19:14;;;;;;;6.30;3.38;;;;;;;;;;5223838;28;20486;-73
2023/07/26 14:21:45;;;;;;;6.40;2.80;;;;;;;;;;5224530;28;20031;-73
2023/07/26 14:24:15;;;;;;;4.57;3.22;;;;;;;;;;5223881;28;20037;-73
2023/07/26 14:26:46;;;;;;;7.05;3.20;;;;;;;;;;5223930;28;20057;-72
2023/07/26 14:29:16;;;;;;;6.07;3.42;;;;;;;;;;5224026;28;20051;-72
2023/07/26 14:31:48;;;;;;;6.43;3.33;;;;;;;;;;5223024;28;20099;-72
2023/07/26 14:34:19;;;;;;;7.32;3.15;;;;;;;;;;5223815;28;20536;-72
2023/07/26 14:36:49;;;;;;;7.43;3.65;;;;;;;;;;5223397;28;20025;-72
2023/07/26 14:39:19;;;;;;;6.95;3.65;;;;;;;;;;5223705;28;20018;-72
2023/07/26 14:41:50;;;;;;;5.00;3.50;;;;;;;;;;5224752;28;20028;-73
2023/07/26 14:44:20;;;;;;;7.25;3.00;;;;;;;;;;5227907;28;20021;-73
2023/07/26 14:46:50;;;;;;;7.78;3.35;;;;;;;;;;5227621;28;20428;-72
2023/07/26 14:49:21;;;;;;;5.78;3.08;;;;;;;;;;5227850;28;20032;-72
2023/07/26 14:51:51;;;;;;;4.88;2.95;;;;;;;;;;5228284;28;20087;-73
2023/07/26 14:54:21;;;;;;;5.53;3.05;;;;;;;;;;5227984;28;20017;-72
2023/07/26 14:56:51;;;;;;;7.82;3.10;;;;;;;;;;5227533;28;20017;-72
2023/07/26 14:59:22;;;;;;;5.40;3.13;;;;;;;;;;5227662;28;20009;-72
2023/07/26 15:01:52;;;;;;;4.10;2.55;;;;;;;;;;5227570;28;20479;-72